M I D A S
Marine Information and Data Acquisition System
Tripno 2286 of the Zeeleeuw from 2012-04-10 06:58:58 to 2012-04-10 14:41:08
Back to CruiseResearch ActivitiesStationsMapUnderway DataData graphs

EquipmentUnitsComment
TimeDGPSUTC
LatitudeDGPSDM.mWGS84
LongitudeDGPSDM.mWGS84
HeadingGyrodeg 
SOGDGPSknotsSpeed over ground
COGDGPSdegCourse over ground
DepthEcho soundermeters200 kHz
Missing or incorrect values are displayed as -999
Navigation data collected by the RV Zeeleeuw from 2012-04-10 06:36:12 to 2012-04-10 14:52:26
Time Latitude Longitude Heading SOG COG Depth
2012-04-10 06:37:17 51°13.635 2°56.016 125.5 0.1 110 -999
2012-04-10 06:38:17 51°13.635 2°56.016 125.5 -999 112 -999
2012-04-10 06:39:17 51°13.635 2°56.015 125.4 -999 183 -999
2012-04-10 06:40:18 51°13.635 2°56.014 125.4 0.1 317 -999
2012-04-10 06:41:17 51°13.635 2°56.014 125.3 -999 53 -999
2012-04-10 06:42:18 51°13.635 2°56.014 125.3 0.1 312 -999
2012-04-10 06:43:17 51°13.635 2°56.016 125.3 -999 31 -999
2012-04-10 06:44:18 51°13.636 2°56.017 124.8 -999 63 -999
2012-04-10 06:45:18 51°13.636 2°56.017 125 -999 135 -999
2012-04-10 06:46:18 51°13.637 2°56.017 125.3 -999 23 -999
2012-04-10 06:47:19 51°13.638 2°56.017 125 -999 145 -999
2012-04-10 06:48:18 51°13.638 2°56.017 124.4 0.1 2 -999
2012-04-10 06:49:18 51°13.637 2°56.017 124.8 -999 21 -999
2012-04-10 06:50:18 51°13.637 2°56.017 125.7 -999 66 -999
2012-04-10 06:51:18 51°13.637 2°56.017 125.7 -999 164 -999
2012-04-10 06:52:18 51°13.637 2°56.017 125.3 -999 27 -999
2012-04-10 06:53:18 51°13.636 2°56.017 127.3 -999 167 -999
2012-04-10 06:54:19 51°13.636 2°56.018 127.8 -999 181 -999
2012-04-10 06:55:18 51°13.636 2°56.019 128 -999 17 -999
2012-04-10 06:56:18 51°13.636 2°56.019 128.1 0.1 84 -999
2012-04-10 06:57:18 51°13.636 2°56.019 119.1 -999 186 7.7
2012-04-10 06:58:18 51°13.635 2°56.018 112.1 0.1 180 -999
2012-04-10 06:59:18 51°13.641 2°55.989 108.3 3 292 -999
2012-04-10 07:00:18 51°13.659 2°55.919 103.9 1.3 290 -999
2012-04-10 07:01:19 51°13.672 2°55.847 110.1 3.6 290 -999
2012-04-10 07:02:18 51°13.71 2°55.757 136.2 4.8 315 -999
2012-04-10 07:03:18 51°13.776 2°55.679 152.7 5.1 332 -999
2012-04-10 07:04:18 51°13.857 2°55.626 162.5 4.9 342 -999
2012-04-10 07:05:18 51°13.931 2°55.604 183.2 4 -999 -999
2012-04-10 07:06:18 51°13.976 2°55.613 215.8 0.7 282 -999
2012-04-10 07:07:18 51°13.988 2°55.547 300.8 3.9 312 -999
2012-04-10 07:08:18 51°14.063 2°55.476 333.6 6.7 333 -999
2012-04-10 07:09:18 51°14.174 2°55.378 331.9 8.2 330 -999
2012-04-10 07:10:18 51°14.296 2°55.272 334 8.6 332 -999
2012-04-10 07:11:18 51°14.427 2°55.15 330.6 9.7 328 -999
2012-04-10 07:12:17 51°14.568 2°55.01 328.2 10.6 324 11.4
2012-04-10 07:13:15 51°14.67 2°54.775 295.8 11.9 286 10.9
2012-04-10 07:14:15 51°14.621 2°54.478 236.4 12.3 232 10.2
2012-04-10 07:15:15 51°14.502 2°54.198 241.9 12.8 241 9.5
2012-04-10 07:16:15 51°14.386 2°53.909 234.4 12.9 234 9.4
2012-04-10 07:17:15 51°14.254 2°53.64 233.7 12.9 234 9.5
2012-04-10 07:18:15 51°14.135 2°53.36 236 12.8 235 9.2
2012-04-10 07:19:15 51°14.006 2°53.094 233.1 12.6 233 9.6
2012-04-10 07:20:15 51°13.888 2°52.816 237.4 12.6 236 9.3
2012-04-10 07:21:15 51°13.763 2°52.547 231.3 12.6 232 9.6
2012-04-10 07:22:15 51°13.633 2°52.283 233.4 12.6 233 9.6
2012-04-10 07:23:15 51°13.513 2°52.006 236.7 12.7 236 9.8
2012-04-10 07:24:15 51°13.385 2°51.741 231.6 12.5 231 9.6
2012-04-10 07:25:15 51°13.263 2°51.47 236.4 12.6 235 9.8
2012-04-10 07:26:15 51°13.138 2°51.202 234.8 12.6 235 9.5
2012-04-10 07:27:15 51°13.022 2°50.923 236.8 12.7 236 9.7
2012-04-10 07:28:15 51°12.903 2°50.646 237.3 12.6 237 9.6
2012-04-10 07:29:15 51°12.807 2°50.348 245.4 12.7 244 9.6
2012-04-10 07:30:15 51°12.701 2°50.059 238.5 12.6 238 9.7
2012-04-10 07:31:15 51°12.6 2°49.765 243.8 12.7 242 9.5
2012-04-10 07:32:15 51°12.502 2°49.469 242.8 12.6 241 9.6
2012-04-10 07:33:15 51°12.39 2°49.184 237.8 12.6 238 9.5
2012-04-10 07:34:15 51°12.284 2°48.895 245.2 12.7 245 9.5
2012-04-10 07:35:15 51°12.2 2°48.585 248.6 12.8 247 9.6
2012-04-10 07:36:15 51°12.112 2°48.276 245.8 12.9 245 9.6
2012-04-10 07:37:15 51°12.017 2°47.969 244.2 12.9 244 9.9
2012-04-10 07:38:15 51°11.928 2°47.656 248 13 247 10
2012-04-10 07:39:15 51°11.851 2°47.334 251.2 13.1 249 10
2012-04-10 07:40:15 51°11.772 2°47.011 248.6 13.1 248 10.2
2012-04-10 07:41:15 51°11.682 2°46.696 246.9 13.1 246 10.2
2012-04-10 07:42:15 51°11.604 2°46.371 251.9 13.1 250 10.4
2012-04-10 07:43:15 51°11.519 2°46.052 250.2 13.1 249 10.5
2012-04-10 07:44:15 51°11.446 2°45.726 251.8 13.1 251 10.3
2012-04-10 07:45:15 51°11.369 2°45.401 248.4 13.1 247 10.5
2012-04-10 07:46:15 51°11.274 2°45.089 243.4 13 246 10.5
2012-04-10 07:47:15 51°11.201 2°44.764 256 13 256 10.5
2012-04-10 07:48:15 51°11.138 2°44.432 249.8 13 248 10.6
2012-04-10 07:49:15 51°11.06 2°44.109 249.7 13 250 10.2
2012-04-10 07:50:15 51°11.001 2°43.776 256.4 13 255 10.7
2012-04-10 07:51:15 51°10.928 2°43.452 247.6 13.1 246 10.6
2012-04-10 07:52:15 51°10.86 2°43.122 256.3 13.1 255 10.3
2012-04-10 07:53:15 51°10.799 2°42.79 252.9 13.1 251 10.5
2012-04-10 07:54:15 51°10.723 2°42.464 252.3 13.1 252 10.6
2012-04-10 07:55:15 51°10.658 2°42.133 252.8 13.1 252 10.8
2012-04-10 07:56:15 51°10.583 2°41.807 249.7 13.2 250 10.6
2012-04-10 07:57:15 51°10.519 2°41.475 255.2 13.1 255 10.6
2012-04-10 07:58:15 51°10.446 2°41.148 246.9 13.1 247 10.8
2012-04-10 07:59:15 51°10.376 2°40.821 255.7 13.1 256 10.8
2012-04-10 08:00:15 51°10.305 2°40.495 247.5 13.1 248 10.6
2012-04-10 08:01:15 51°10.224 2°40.172 248.3 13.1 249 11.1
2012-04-10 08:02:15 51°10.157 2°39.841 256.3 13.2 256 11.3
2012-04-10 08:03:15 51°10.106 2°39.501 256.5 13.2 256 11.6
2012-04-10 08:04:15 51°10.045 2°39.166 250 13.2 249 12.1
2012-04-10 08:05:15 51°9.968 2°38.836 254 13.3 254 12.6
2012-04-10 08:06:15 51°9.923 2°38.493 259.4 13.3 258 13.3
2012-04-10 08:07:15 51°9.872 2°38.151 256.3 13.3 258 14
2012-04-10 08:08:15 51°9.839 2°37.803 266.8 13.3 265 14.4
2012-04-10 08:09:15 51°9.819 2°37.453 264.3 13.3 261 15.1
2012-04-10 08:10:15 51°9.781 2°37.105 262.1 13.4 261 15.3
2012-04-10 08:11:15 51°9.761 2°36.751 267.5 13.4 265 15.7
2012-04-10 08:12:15 51°9.719 2°36.404 255.5 13.4 254 16.2
2012-04-10 08:13:15 51°9.66 2°36.062 256.2 13.4 256 16.1
2012-04-10 08:14:15 51°9.617 2°35.713 261.6 13.4 260 16.7
2012-04-10 08:15:15 51°9.596 2°35.369 283.5 12.7 288 17.1
2012-04-10 08:16:15 51°9.755 2°35.231 8.1 11.7 1 17.4
2012-04-10 08:17:15 51°9.94 2°35.312 28.8 11.6 21 14.3
2012-04-10 08:18:15 51°10.116 2°35.434 33.5 11.4 28 9.7
2012-04-10 08:19:15 51°10.293 2°35.556 25.5 11.8 21 9.8
2012-04-10 08:20:15 51°10.468 2°35.688 34.2 11.6 30 9.2
2012-04-10 08:21:15 51°10.639 2°35.833 32.1 11.6 29 9.3
2012-04-10 08:22:15 51°10.814 2°35.965 27.2 11.6 23 9.3
2012-04-10 08:23:15 51°10.991 2°36.091 29.7 11.6 26 9.3
2012-04-10 08:24:15 51°11.165 2°36.224 28.1 11.6 25 9.5
2012-04-10 08:25:15 51°11.341 2°36.347 25.5 11.6 22 9.8
2012-04-10 08:26:15 51°11.515 2°36.48 31.3 11.6 27 9.3
2012-04-10 08:27:15 51°11.686 2°36.618 31 11.5 25 8.7
2012-04-10 08:28:15 51°11.848 2°36.774 43.3 11.4 42 8.9
2012-04-10 08:29:15 51°11.973 2°36.997 52.4 11.3 49 9.4
2012-04-10 08:30:15 51°12.105 2°37.21 45.2 11.3 42 9.8
2012-04-10 08:31:15 51°12.251 2°37.402 42.3 11.4 38 10.1
2012-04-10 08:32:15 51°12.415 2°37.555 29.1 11.5 23 10.4
2012-04-10 08:33:15 51°12.583 2°37.698 38 11.4 37 10.7
2012-04-10 08:34:15 51°12.74 2°37.871 41.6 11.5 38 11.1
2012-04-10 08:35:15 51°12.893 2°38.051 40.4 11.4 36 12
2012-04-10 08:36:15 51°13.046 2°38.233 40.6 11.5 37 12.2
2012-04-10 08:37:15 51°13.206 2°38.402 37.7 11.4 32 12.5
2012-04-10 08:38:15 51°13.365 2°38.568 38.3 11.5 33 12.8
2012-04-10 08:39:15 51°13.524 2°38.735 37.7 11.5 33 13
2012-04-10 08:40:15 51°13.696 2°38.868 26.7 11.6 14 12.9
2012-04-10 08:41:15 51°13.891 2°38.89 3 12 355 12.2
2012-04-10 08:42:15 51°14.09 2°38.851 359 12 354 10.3
2012-04-10 08:43:15 51°14.29 2°38.821 1.7 12.1 356 13.5
2012-04-10 08:44:15 51°14.461 2°38.674 316.5 12.3 305 16.9
2012-04-10 08:45:16 51°14.49 2°38.346 265.7 13.1 262 15.4
2012-04-10 08:46:15 51°14.395 2°38.051 228.3 13 231 15
2012-04-10 08:47:15 51°14.263 2°37.772 234.9 13.3 238 15.3
2012-04-10 08:48:15 51°14.145 2°37.472 236.7 13.5 238 16.3
2012-04-10 08:49:15 51°14.018 2°37.181 230.8 13.4 233 17.7
2012-04-10 08:50:15 51°13.894 2°36.888 239.5 13.5 242 18.8
2012-04-10 08:51:15 51°13.805 2°36.56 247.1 13.5 247 19
2012-04-10 08:52:15 51°13.707 2°36.24 240.5 13.4 241 17.7
2012-04-10 08:53:15 51°13.614 2°35.915 247.2 13.3 245 15.2
2012-04-10 08:54:15 51°13.515 2°35.595 245.2 13.5 245 15.9
2012-04-10 08:55:15 51°13.41 2°35.279 242 13.4 240 15.2
2012-04-10 08:56:15 51°13.311 2°34.958 246.6 13.5 246 15.3
2012-04-10 08:57:15 51°13.206 2°34.643 240.3 13.3 239 14.8
2012-04-10 08:58:15 51°13.094 2°34.335 243.3 13.4 243 14.7
2012-04-10 08:59:15 51°13.009 2°34.006 250.5 13.4 248 13.6
2012-04-10 09:00:15 51°12.923 2°33.68 248.4 13.3 246 12.4
2012-04-10 09:01:15 51°12.82 2°33.365 244.4 13.5 243 13.4
2012-04-10 09:02:15 51°12.727 2°33.044 248.1 13.3 245 15.1
2012-04-10 09:03:15 51°12.619 2°32.734 242.9 13.4 241 16.1
2012-04-10 09:04:15 51°12.526 2°32.411 250.1 13.4 247 18.4
2012-04-10 09:05:15 51°12.432 2°32.088 245.9 13.4 242 19.2
2012-04-10 09:06:15 51°12.321 2°31.775 243.1 13.6 240 21.3
2012-04-10 09:07:15 51°12.218 2°31.454 249.8 13.5 246 21.2
2012-04-10 09:08:15 51°12.126 2°31.125 248.4 13.6 244 21.7
2012-04-10 09:09:15 51°12.017 2°30.808 243.3 13.7 241 20.8
2012-04-10 09:10:15 51°11.918 2°30.479 249.5 13.7 245 21.2
2012-04-10 09:11:15 51°11.807 2°30.159 242.7 13.8 241 21.3
2012-04-10 09:12:15 51°11.709 2°29.829 250 13.8 246 21.7
2012-04-10 09:13:15 51°11.605 2°29.502 244 13.8 241 21.8
2012-04-10 09:14:15 51°11.498 2°29.176 247.6 13.9 245 23.1
2012-04-10 09:15:15 51°11.39 2°28.851 241.7 13.9 240 21.5
2012-04-10 09:16:15 51°11.3 2°28.514 260.8 13.8 260 21.6
2012-04-10 09:17:15 51°11.292 2°28.148 276.7 13.8 272 20.4
2012-04-10 09:18:15 51°11.34 2°27.796 299 13.4 295 22.1
2012-04-10 09:19:15 51°11.464 2°27.51 318.2 12.8 313 16.4
2012-04-10 09:20:15 51°11.613 2°27.283 326.9 12.1 321 9.6
2012-04-10 09:21:15 51°11.772 2°27.102 331.3 11.4 324 7.3
2012-04-10 09:22:15 51°11.924 2°26.914 327.7 12.2 323 8.7
2012-04-10 09:23:15 51°12.107 2°26.819 4.3 11.6 3 10.5
2012-04-10 09:24:15 51°12.287 2°26.91 31.1 11.4 32 14.2
2012-04-10 09:25:15 51°12.429 2°27.105 46.6 11.3 43 15
2012-04-10 09:26:15 51°12.57 2°27.3 37.7 11.4 38 16.6
2012-04-10 09:27:15 51°12.735 2°27.446 31.3 11.4 27 20.6
2012-04-10 09:28:15 51°12.892 2°27.609 40.5 11.4 38 20.7
2012-04-10 09:29:15 51°13.04 2°27.794 40.6 11.3 36 20.9
2012-04-10 09:30:15 51°13.196 2°27.958 35.7 11.3 33 21.2
2012-04-10 09:31:15 51°13.346 2°28.137 41.2 11.1 40 20.4
2012-04-10 09:32:15 51°13.488 2°28.327 42.4 11.2 36 19.5
2012-04-10 09:33:15 51°13.64 2°28.5 37.3 11.2 31 18.7
2012-04-10 09:34:15 51°13.791 2°28.671 40 11.2 39 18.9
2012-04-10 09:35:15 51°13.938 2°28.856 38.6 11.3 40 18.7
2012-04-10 09:36:15 51°14.085 2°29.037 38.6 11.3 35 18.7
2012-04-10 09:37:15 51°14.236 2°29.211 40.5 11.3 39 19.5
2012-04-10 09:38:15 51°14.379 2°29.404 40.5 11.2 40 20.3
2012-04-10 09:39:15 51°14.531 2°29.58 36.5 11.3 34 21.7
2012-04-10 09:40:15 51°14.684 2°29.75 37.4 11.2 34 22.1
2012-04-10 09:41:15 51°14.829 2°29.938 42 11.2 41 25.2
2012-04-10 09:42:15 51°14.976 2°30.122 37.7 11.2 39 25.5
2012-04-10 09:43:15 51°15.126 2°30.298 41.4 11.1 35 26.1
2012-04-10 09:44:15 51°15.279 2°30.466 36.9 11.1 37 25.7
2012-04-10 09:45:15 51°15.427 2°30.638 42 11.1 39 26.5
2012-04-10 09:46:15 51°15.571 2°30.815 40.3 10.9 39 26.5
2012-04-10 09:47:15 51°15.715 2°30.99 38 10.7 38 26.3
2012-04-10 09:48:15 51°15.865 2°31.153 37.5 11.1 31 26.3
2012-04-10 09:49:15 51°16.013 2°31.322 39.5 10.8 36 26
2012-04-10 09:50:15 51°16.155 2°31.503 42.4 11.2 37 26.5
2012-04-10 09:51:15 51°16.299 2°31.688 40.7 11 40 26.7
2012-04-10 09:52:15 51°16.448 2°31.857 38.8 11 35 26.4
2012-04-10 09:53:15 51°16.594 2°32.033 40 11 36 25.6
2012-04-10 09:54:15 51°16.73 2°32.223 46.9 10.8 44 24.5
2012-04-10 09:55:15 51°16.87 2°32.404 38.8 10.8 38 24.5
2012-04-10 09:56:15 51°17.013 2°32.577 41 10.8 44 24.8
2012-04-10 09:57:15 51°17.147 2°32.764 48.4 10.6 47 25
2012-04-10 09:58:15 51°17.239 2°33.011 64 10.6 62 24.4
2012-04-10 09:59:15 51°17.311 2°33.27 64.9 10.7 65 23.9
2012-04-10 10:00:15 51°17.387 2°33.528 64.7 10.7 63 24.3
2012-04-10 10:01:15 51°17.467 2°33.783 63.8 10.6 65 23.5
2012-04-10 10:02:15 51°17.547 2°34.035 64.5 10.8 65 23.6
2012-04-10 10:03:15 51°17.618 2°34.292 73.3 10.7 80 23.8
2012-04-10 10:04:15 51°17.633 2°34.58 82.2 10.8 88 21.5
2012-04-10 10:05:15 51°17.654 2°34.859 82.5 10.5 82 13.3
2012-04-10 10:06:15 51°17.66 2°35.14 91.5 10.6 97 10.9
2012-04-10 10:07:15 51°17.592 2°35.405 116.4 11.2 124 9.3
2012-04-10 10:08:15 51°17.476 2°35.643 121.3 11.6 134 10.5
2012-04-10 10:09:15 51°17.353 2°35.88 126.5 11.7 135 14.4
2012-04-10 10:10:15 51°17.208 2°36.098 128.8 12.1 136 20.6
2012-04-10 10:11:15 51°17.068 2°36.324 122.5 11.5 127 25.7
2012-04-10 10:12:15 51°17.061 2°36.586 66.7 10.1 58 26.2
2012-04-10 10:13:15 51°17.194 2°36.755 40.2 10.6 38 26.5
2012-04-10 10:14:15 51°17.323 2°36.945 50.2 10.5 41 26.3
2012-04-10 10:15:15 51°17.446 2°37.145 49.8 10.5 45 26.9
2012-04-10 10:16:15 51°17.564 2°37.347 51.9 10.4 47 26
2012-04-10 10:17:15 51°17.681 2°37.554 49.8 10.2 46 26.8
2012-04-10 10:18:15 51°17.808 2°37.745 48.4 10.6 43 26
2012-04-10 10:19:15 51°17.935 2°37.935 48.7 10.5 43 26.5
2012-04-10 10:20:15 51°18.057 2°38.136 50.4 10.6 48 26
2012-04-10 10:21:15 51°18.175 2°38.341 50.5 10.4 49 26
2012-04-10 10:22:15 51°18.297 2°38.537 47.3 10.6 41 26.7
2012-04-10 10:23:15 51°18.422 2°38.732 48.9 10.5 44 26.2
2012-04-10 10:24:16 51°18.568 2°38.901 36.9 10.9 31 26.6
2012-04-10 10:25:15 51°18.724 2°39.029 31.5 10.8 20 25.8
2012-04-10 10:26:15 51°18.903 2°39.042 359.9 11.3 348 26.9
2012-04-10 10:27:15 51°19.042 2°38.834 306.2 12.7 292 27.6
2012-04-10 10:28:15 51°19.095 2°38.49 289.3 13.6 281 27
2012-04-10 10:29:15 51°19.126 2°38.128 285.7 13.8 278 23.8
2012-04-10 10:30:15 51°19.16 2°37.77 290.5 13.5 282 18.9
2012-04-10 10:31:15 51°19.217 2°37.424 294 13.6 285 20.3
2012-04-10 10:32:15 51°19.275 2°37.076 294.9 13.6 285 21
2012-04-10 10:33:15 51°19.321 2°36.721 289.7 13.7 280 20.7
2012-04-10 10:34:15 51°19.362 2°36.363 289.3 13.7 281 21.4
2012-04-10 10:35:15 51°19.412 2°36.01 294.6 13.6 286 20.4
2012-04-10 10:36:15 51°19.469 2°35.661 292.6 13.6 283 20.9
2012-04-10 10:37:15 51°19.515 2°35.309 290.5 13.6 281 19.2
2012-04-10 10:38:16 51°19.557 2°34.947 289.6 13.6 281 15.9
2012-04-10 10:39:15 51°19.607 2°34.603 292.3 13.5 284 14.4
2012-04-10 10:40:15 51°19.669 2°34.26 298 13.2 290 24.1
2012-04-10 10:41:15 51°19.745 2°33.929 300.2 13.2 291 29.6
2012-04-10 10:42:15 51°19.814 2°33.59 294 13.5 285 30.2
2012-04-10 10:43:15 51°19.87 2°33.242 293.4 13.6 284 31
2012-04-10 10:44:15 51°19.935 2°32.896 298.7 13.7 288 30.9
2012-04-10 10:45:15 51°20.004 2°32.551 298.6 13.5 288 30.4
2012-04-10 10:46:15 51°20.065 2°32.202 294.6 13.7 283 30.7
2012-04-10 10:47:15 51°20.118 2°31.847 294 13.8 283 30.2
2012-04-10 10:48:15 51°20.179 2°31.497 298.8 13.6 288 25.2
2012-04-10 10:49:15 51°20.252 2°31.153 299.2 13.7 288 18.5
2012-04-10 10:50:15 51°20.316 2°30.801 293.8 13.9 286 14.6
2012-04-10 10:51:15 51°20.379 2°30.446 292.9 13.9 286 11.8
2012-04-10 10:52:15 51°20.46 2°30.102 299.9 13.5 292 27.4
2012-04-10 10:53:15 51°20.538 2°29.769 294.9 13.4 287 29.7
2012-04-10 10:54:15 51°20.603 2°29.428 295.1 13.4 288 30
2012-04-10 10:55:15 51°20.67 2°29.092 296.4 13.3 288 27.2
2012-04-10 10:56:15 51°20.744 2°28.758 298 13.3 289 27.7
2012-04-10 10:57:15 51°20.839 2°28.446 310.9 13 301 29.5
2012-04-10 10:58:15 51°20.952 2°28.155 312.7 13 299 31.6
2012-04-10 10:59:15 51°21.058 2°27.849 310.1 13.4 298 33.2
2012-04-10 11:00:15 51°21.168 2°27.541 309.4 13.2 298 34.2
2012-04-10 11:01:15 51°21.263 2°27.225 307 13.3 294 34.4
2012-04-10 11:02:15 51°21.361 2°26.915 310.4 12.9 300 34.4
2012-04-10 11:03:15 51°21.471 2°26.622 311 12.8 300 35.3
2012-04-10 11:04:15 51°21.573 2°26.313 307.4 13.2 295 35.4
2012-04-10 11:05:16 51°21.677 2°25.998 309.4 12.8 300 35.1
2012-04-10 11:06:15 51°21.777 2°25.689 309.2 13.3 298 33.5
2012-04-10 11:07:15 51°21.884 2°25.384 311.2 13.3 299 32.5
2012-04-10 11:08:15 51°21.99 2°25.077 309 13.2 299 24.7
2012-04-10 11:09:15 51°22.107 2°24.781 322.1 12.7 313 23.4
2012-04-10 11:10:15 51°22.269 2°24.573 334.3 12.1 326 32.6
2012-04-10 11:11:15 51°22.43 2°24.372 329.7 12.3 320 33.8
2012-04-10 11:12:15 51°22.59 2°24.166 333.3 12.2 326 34.8
2012-04-10 11:13:15 51°22.753 2°23.972 334 12.2 323 34.8
2012-04-10 11:14:15 51°22.912 2°23.779 335.3 11.8 327 34.5
2012-04-10 11:15:15 51°23.073 2°23.602 338.3 11.7 327 37.1
2012-04-10 11:16:16 51°23.234 2°23.42 335.2 11.6 325 36.1
2012-04-10 11:17:15 51°23.393 2°23.255 341 11.5 332 34
2012-04-10 11:18:15 51°23.557 2°23.099 341.2 11.7 330 33.3
2012-04-10 11:19:15 51°23.723 2°22.947 338.7 11.4 332 31.3
2012-04-10 11:20:15 51°23.889 2°22.79 341.1 11.4 332 30.8
2012-04-10 11:21:15 51°24.059 2°22.638 338.8 11.8 332 33.5
2012-04-10 11:22:15 51°24.227 2°22.482 339.1 11.5 329 32
2012-04-10 11:23:15 51°24.395 2°22.323 339 11.6 331 34.1
2012-04-10 11:24:15 51°24.563 2°22.171 341.8 11.4 329 35.2
2012-04-10 11:25:15 51°24.729 2°22.013 341.5 11.5 329 36
2012-04-10 11:26:15 51°24.901 2°21.956 17.9 10.5 14 36.7
2012-04-10 11:27:15 51°25.059 2°22.07 32.7 10.5 24 36.1
2012-04-10 11:28:15 51°25.209 2°22.204 32.1 10.2 27 34.1
2012-04-10 11:29:15 51°25.357 2°22.356 35.5 10.7 31 34.7
2012-04-10 11:30:15 51°25.506 2°22.503 32 10.6 29 35.9
2012-04-10 11:31:15 51°25.654 2°22.645 33.9 10.5 28 34.7
2012-04-10 11:32:15 51°25.807 2°22.781 32.5 10.7 32 36
2012-04-10 11:33:15 51°25.959 2°22.927 34.7 10.6 32 36.3
2012-04-10 11:34:15 51°26.109 2°23.075 35.4 10.6 34 34.9
2012-04-10 11:35:15 51°26.256 2°23.227 34.5 10.7 29 35
2012-04-10 11:36:15 51°26.408 2°23.376 34.3 10.4 28 32.6
2012-04-10 11:37:15 51°26.556 2°23.53 33.9 10.7 34 36
2012-04-10 11:38:15 51°26.704 2°23.683 37.4 10.5 30 34.7
2012-04-10 11:39:15 51°26.85 2°23.833 33.6 10.5 32 36
2012-04-10 11:40:15 51°26.998 2°23.99 34 10.5 35 33.7
2012-04-10 11:41:15 51°27.148 2°24.139 31.2 10.6 32 35.9
2012-04-10 11:42:15 51°27.297 2°24.288 35.6 10.7 35 35
2012-04-10 11:43:15 51°27.444 2°24.448 34.8 10.6 36 35.7
2012-04-10 11:44:15 51°27.586 2°24.616 43.5 10.5 49 35.7
2012-04-10 11:45:15 51°27.624 2°24.893 91.4 11.6 101 36.5
2012-04-10 11:46:15 51°27.508 2°25.151 127.8 12.3 136 36
2012-04-10 11:47:15 51°27.351 2°25.369 133.2 12.6 140 35.8
2012-04-10 11:48:16 51°27.187 2°25.587 132.5 12.6 142 35.2
2012-04-10 11:49:15 51°27.031 2°25.8 135.5 12.6 142 35.1
2012-04-10 11:50:15 51°26.865 2°26.004 136.5 12.4 141 32.7
2012-04-10 11:51:15 51°26.703 2°26.211 136.4 12.6 143 24.8
2012-04-10 11:52:15 51°26.543 2°26.42 135.4 12.4 138 30.2
2012-04-10 11:53:15 51°26.38 2°26.625 134.6 12.6 143 33.6
2012-04-10 11:54:15 51°26.218 2°26.83 135 12.6 144 35.7
2012-04-10 11:55:15 51°26.059 2°27.037 134.1 12.3 142 36.6
2012-04-10 11:56:15 51°25.901 2°27.244 135.5 12.1 141 35.2
2012-04-10 11:57:15 51°25.757 2°27.47 126.5 12.1 132 34.7
2012-04-10 11:58:15 51°25.637 2°27.726 121.3 12.1 127 34.6
2012-04-10 11:59:15 51°25.573 2°28.008 88.6 11.4 84 32.9
2012-04-10 12:00:15 51°25.683 2°28.236 37.6 11.6 31 29.4
2012-04-10 12:01:15 51°25.856 2°28.375 28.4 11.9 28 30.2
2012-04-10 12:02:15 51°26.036 2°28.5 25.9 11.8 21 31.3
2012-04-10 12:03:15 51°26.21 2°28.641 34.4 11.7 33 33.7
2012-04-10 12:04:15 51°26.377 2°28.798 34.8 11.7 29 33.6
2012-04-10 12:05:15 51°26.544 2°28.957 34 11.6 30 34.1
2012-04-10 12:06:15 51°26.712 2°29.111 32.7 11.8 26 34.3
2012-04-10 12:07:15 51°26.882 2°29.262 31.4 11.6 31 34.8
2012-04-10 12:08:16 51°27.055 2°29.409 30.4 11.3 27 34.7
2012-04-10 12:09:15 51°27.223 2°29.543 32.4 11.4 29 35.1
2012-04-10 12:10:15 51°27.392 2°29.688 31.6 11.6 28 35.3
2012-04-10 12:11:15 51°27.564 2°29.834 31.3 11.7 28 34.9
2012-04-10 12:12:15 51°27.733 2°29.979 32.1 11.4 25 35
2012-04-10 12:13:15 51°27.9 2°30.127 30.1 11.5 29 36.7
2012-04-10 12:14:15 51°28.069 2°30.277 32.3 11.5 28 35.6
2012-04-10 12:15:15 51°28.237 2°30.429 31.6 11.4 29 35.7
2012-04-10 12:16:15 51°28.402 2°30.587 33.4 11.6 34 35.9
2012-04-10 12:17:15 51°28.572 2°30.741 29.3 11.7 31 36.3
2012-04-10 12:18:15 51°28.747 2°30.879 26.2 11.7 26 36.5
2012-04-10 12:19:15 51°28.921 2°31.019 29.8 11.5 26 36
2012-04-10 12:20:15 51°29.094 2°31.162 29.6 11.7 29 35.3
2012-04-10 12:21:15 51°29.262 2°31.313 32.8 11.5 29 35.2
2012-04-10 12:22:15 51°29.434 2°31.459 29.8 11.8 27 34
2012-04-10 12:23:15 51°29.608 2°31.602 29.1 11.8 29 33.9
2012-04-10 12:24:15 51°29.776 2°31.759 31.1 11.6 30 33.7
2012-04-10 12:25:15 51°29.949 2°31.898 26.2 11.5 27 32.6
2012-04-10 12:26:15 51°30.121 2°32.038 27.3 11.6 28 32.9
2012-04-10 12:27:15 51°30.29 2°32.187 29.1 11.5 29 33.3
2012-04-10 12:27:30 51°30.333 2°32.223 30 11.5 28 33.2
2012-04-10 12:28:30 51°30.502 2°32.373 31.1 11.6 27 32.1
2012-04-10 12:29:30 51°30.675 2°32.517 27 11.7 26 35.8
2012-04-10 12:30:30 51°30.848 2°32.654 28.8 11.6 27 34.5
2012-04-10 12:31:30 51°31.021 2°32.796 28.4 11.7 29 35.3
2012-04-10 12:32:30 51°31.19 2°32.951 30.4 11.6 29 34.8
2012-04-10 12:33:30 51°31.367 2°33.089 28.1 11.8 24 35
2012-04-10 12:34:30 51°31.542 2°33.227 27.5 11.9 25 33.9
2012-04-10 12:35:30 51°31.72 2°33.356 26.7 11.6 24 35.3
2012-04-10 12:36:30 51°31.899 2°33.482 26.3 11.7 25 33.6
2012-04-10 12:37:30 51°32.076 2°33.621 28.4 11.6 30 32.2
2012-04-10 12:38:30 51°32.249 2°33.756 27.9 11.7 26 33
2012-04-10 12:39:30 51°32.424 2°33.903 29 12 27 32
2012-04-10 12:40:30 51°32.602 2°34.036 25.3 11.7 25 34.5
2012-04-10 12:41:30 51°32.778 2°34.173 27.8 11.7 24 32.1
2012-04-10 12:42:30 51°32.958 2°34.304 24.5 11.9 25 33
2012-04-10 12:43:30 51°33.134 2°34.448 28.9 12 29 31
2012-04-10 12:44:30 51°33.308 2°34.583 26.8 11.8 26 32.8
2012-04-10 12:45:30 51°33.483 2°34.727 27 11.8 27 28.3
2012-04-10 12:46:30 51°33.657 2°34.864 28.5 11.6 23 30.6
2012-04-10 12:47:30 51°33.831 2°35.011 28.8 12 30 28
2012-04-10 12:48:30 51°33.893 2°35.289 96.7 12.2 103 26
2012-04-10 12:49:30 51°33.763 2°35.541 145.2 12.9 145 23.4
2012-04-10 12:50:30 51°33.591 2°35.75 141.3 12.9 142 32.8
2012-04-10 12:51:30 51°33.418 2°35.954 144.5 13 145 38
2012-04-10 12:52:30 51°33.246 2°36.151 142.8 12.7 142 41.7
2012-04-10 12:53:30 51°33.078 2°36.355 143.8 12.8 143 42
2012-04-10 12:54:30 51°32.906 2°36.549 143.5 12.8 144 41.6
2012-04-10 12:55:30 51°32.734 2°36.745 145.4 12.7 144 39.7
2012-04-10 12:56:30 51°32.562 2°36.939 145 12.7 144 41.7
2012-04-10 12:57:30 51°32.39 2°37.135 145 12.7 144 37.3
2012-04-10 12:58:30 51°32.214 2°37.325 148.9 12.9 147 34.7
2012-04-10 12:59:30 51°32.034 2°37.506 149.5 12.8 146 26.6
2012-04-10 13:00:30 51°31.86 2°37.704 146.9 12.9 143 20.4
2012-04-10 13:01:30 51°31.682 2°37.899 149.6 13.1 145 16.3
2012-04-10 13:02:30 51°31.5 2°38.084 152.7 12.8 149 25.2
2012-04-10 13:03:30 51°31.312 2°38.244 155.4 12.8 154 31.3
2012-04-10 13:04:30 51°31.124 2°38.406 151.3 13 149 36.3
2012-04-10 13:05:30 51°30.94 2°38.581 149.8 12.8 149 39.2
2012-04-10 13:06:30 51°30.755 2°38.751 153.4 12.7 152 39.8
2012-04-10 13:07:30 51°30.57 2°38.916 151 12.8 148 39.8
2012-04-10 13:08:30 51°30.395 2°39.108 146.6 12.7 145 39.3
2012-04-10 13:09:30 51°30.222 2°39.299 147.6 12.5 147 41.5
2012-04-10 13:10:30 51°30.049 2°39.483 149.8 12.4 146 40.6
2012-04-10 13:11:30 51°29.871 2°39.658 151.9 12.4 148 38.4
2012-04-10 13:12:30 51°29.699 2°39.846 148.2 12.6 145 34.9
2012-04-10 13:13:30 51°29.526 2°40.035 148.9 12.8 146 34.6
2012-04-10 13:14:30 51°29.351 2°40.22 151 12.6 147 38.2
2012-04-10 13:15:30 51°29.18 2°40.414 148.9 12.6 145 38.1
2012-04-10 13:16:30 51°29.005 2°40.605 149.9 12.7 149 36.6
2012-04-10 13:17:30 51°28.835 2°40.806 148.8 12.7 146 37.5
2012-04-10 13:18:30 51°28.661 2°40.998 149.2 12.8 144 36.1
2012-04-10 13:19:30 51°28.49 2°41.199 149.8 12.8 144 33.6
2012-04-10 13:20:30 51°28.313 2°41.388 151.8 12.7 147 31.8
2012-04-10 13:21:30 51°28.14 2°41.586 147.2 12.8 143 33.2
2012-04-10 13:22:30 51°27.968 2°41.787 148.9 12.8 142 34.3
2012-04-10 13:23:30 51°27.798 2°41.991 148.2 12.6 143 35.4
2012-04-10 13:24:30 51°27.628 2°42.19 149 12.8 145 33.9
2012-04-10 13:25:30 51°27.458 2°42.389 151.3 12.7 144 34.1
2012-04-10 13:26:30 51°27.284 2°42.582 150.5 12.7 143 34.8
2012-04-10 13:27:30 51°27.116 2°42.782 150.6 12.7 145 34.6
2012-04-10 13:28:30 51°26.938 2°42.958 154.7 12.4 151 34.3
2012-04-10 13:29:30 51°26.762 2°43.135 153.4 12.5 148 28.6
2012-04-10 13:30:30 51°26.592 2°43.327 151.8 12.5 147 28.7
2012-04-10 13:31:30 51°26.418 2°43.501 154.6 12.3 147 27.7
2012-04-10 13:32:30 51°26.247 2°43.682 151.2 12.2 145 25.9
2012-04-10 13:33:30 51°26.078 2°43.869 153.3 12.3 146 28.3
2012-04-10 13:34:30 51°25.903 2°44.037 155.9 12.3 149 30
2012-04-10 13:35:30 51°25.731 2°44.214 151 12.4 145 26.5
2012-04-10 13:36:30 51°25.557 2°44.392 154.5 12.3 149 24.9
2012-04-10 13:37:30 51°25.384 2°44.573 150.4 12.4 146 27.3
2012-04-10 13:38:30 51°25.214 2°44.761 151.7 12.3 148 27.7
2012-04-10 13:39:30 51°25.037 2°44.934 154.7 12.4 149 26.3
2012-04-10 13:40:30 51°24.861 2°45.107 154.7 12.5 146 29.8
2012-04-10 13:41:30 51°24.69 2°45.29 154 12.3 148 28.8
2012-04-10 13:42:30 51°24.518 2°45.47 153.4 12.3 147 29.1
2012-04-10 13:43:30 51°24.35 2°45.645 153.7 11.9 148 29.4
2012-04-10 13:44:30 51°24.182 2°45.823 153.7 12.1 147 30.5
2012-04-10 13:45:30 51°24.014 2°45.999 153.5 12 148 31.2
2012-04-10 13:46:30 51°23.847 2°46.173 153.8 12.1 146 33.8
2012-04-10 13:47:30 51°23.682 2°46.353 151.9 12.2 146 31.9
2012-04-10 13:48:30 51°23.519 2°46.541 154 12.2 144 29.7
2012-04-10 13:49:30 51°23.352 2°46.721 154.5 12 147 23.9
2012-04-10 13:50:30 51°23.182 2°46.899 152.4 12.2 145 27.1
2012-04-10 13:51:30 51°23.017 2°47.094 150 12.4 144 20.6
2012-04-10 13:52:30 51°22.846 2°47.276 152.6 12.5 146 24.2
2012-04-10 13:53:30 51°22.677 2°47.462 152.9 12.5 145 21.8
2012-04-10 13:54:30 51°22.506 2°47.65 154.2 12.5 147 23
2012-04-10 13:55:30 51°22.335 2°47.841 154 12.6 145 22.9
2012-04-10 13:56:30 51°22.158 2°48.016 158.7 12.5 149 27.2
2012-04-10 13:57:30 51°21.984 2°48.206 154 12.7 145 26.6
2012-04-10 13:58:30 51°21.815 2°48.411 151.6 12.8 143 26.8
2012-04-10 13:59:30 51°21.641 2°48.604 154.8 12.6 146 26.8
2012-04-10 14:00:30 51°21.467 2°48.789 153.7 12.5 145 25.6
2012-04-10 14:01:30 51°21.298 2°48.98 154.3 12.5 143 23.3
2012-04-10 14:02:30 51°21.125 2°49.154 158.2 12 150 25.7
2012-04-10 14:03:30 51°20.951 2°49.317 157.6 12.2 148 26.2
2012-04-10 14:04:30 51°20.781 2°49.489 157.3 12 151 26.4
2012-04-10 14:05:30 51°20.609 2°49.639 161.1 11.9 152 26.4
2012-04-10 14:06:30 51°20.437 2°49.796 159.9 11.9 150 25.1
2012-04-10 14:07:30 51°20.265 2°49.962 155.4 12 148 22.7
2012-04-10 14:08:30 51°20.095 2°50.135 155.7 12.3 148 19.8
2012-04-10 14:09:30 51°19.92 2°50.303 159.9 12.2 151 17.4
2012-04-10 14:10:30 51°19.742 2°50.454 159.6 12.2 151 16.4
2012-04-10 14:11:30 51°19.566 2°50.623 154.8 12.6 147 15.8
2012-04-10 14:12:30 51°19.391 2°50.798 155.8 12.5 148 17.5
2012-04-10 14:13:30 51°19.212 2°50.95 162.5 12 154 18.1
2012-04-10 14:14:30 51°19.029 2°51.083 164.9 12 156 18.5
2012-04-10 14:15:30 51°18.85 2°51.236 156.7 12.5 146 17.9
2012-04-10 14:16:30 51°18.679 2°51.417 158.3 12.1 152 17.7
2012-04-10 14:17:30 51°18.498 2°51.537 170.7 11.6 160 16.7
2012-04-10 14:18:30 51°18.315 2°51.635 167.7 11.6 161 15.5
2012-04-10 14:19:30 51°18.137 2°51.761 163.4 11.7 156 14.5
2012-04-10 14:20:30 51°17.957 2°51.884 167 11.7 157 13.9
2012-04-10 14:21:30 51°17.779 2°52.007 163.2 11.6 156 14.2
2012-04-10 14:22:30 51°17.598 2°52.117 169.2 11.5 162 14.9
2012-04-10 14:23:30 51°17.417 2°52.222 167.6 11.8 157 14.9
2012-04-10 14:24:30 51°17.237 2°52.341 166.3 11.7 157 14
2012-04-10 14:25:30 51°17.06 2°52.475 162.6 11.8 155 13.4
2012-04-10 14:26:30 51°16.885 2°52.625 158.7 12.2 148 13.6
2012-04-10 14:27:30 51°16.714 2°52.795 157.6 12.2 149 14.5
2012-04-10 14:28:30 51°16.535 2°52.938 166.4 12.1 157 15.5
2012-04-10 14:29:30 51°16.354 2°53.068 164.9 12 155 15.8
2012-04-10 14:30:30 51°16.178 2°53.222 160.7 12.2 150 15.7
2012-04-10 14:31:30 51°16.003 2°53.376 160 12.2 148 15.6
2012-04-10 14:32:30 51°15.828 2°53.534 159.6 11.9 151 15.5
2012-04-10 14:33:30 51°15.658 2°53.712 155.4 12.3 144 15.2
2012-04-10 14:34:30 51°15.486 2°53.881 155.6 12.1 148 15.2
2012-04-10 14:35:30 51°15.312 2°54.039 157.2 12.1 149 14.9
2012-04-10 14:36:30 51°15.154 2°54.243 146.1 12.3 137 14.6
2012-04-10 14:37:30 51°15.003 2°54.471 145.7 12.4 139 14.9
2012-04-10 14:38:30 51°14.852 2°54.69 150.1 12.1 140 15.2
2012-04-10 14:39:30 51°14.693 2°54.9 151.3 12.3 138 14.8
2012-04-10 14:40:30 51°14.528 2°55.078 166.1 11.4 164 14.1
2012-04-10 14:41:32 51°14.356 2°55.214 149.8 9.8 149 -999
2012-04-10 14:42:34 51°14.226 2°55.333 152 8.3 151 -999
2012-04-10 14:43:33 51°14.108 2°55.425 155 8 154 13.7
2012-04-10 14:44:33 51°13.995 2°55.508 157.2 7.1 156 14
2012-04-10 14:45:32 51°13.893 2°55.58 156.6 6.3 155 14
2012-04-10 14:46:32 51°13.804 2°55.652 150.7 5.8 148 14.2
2012-04-10 14:47:32 51°13.733 2°55.746 135.3 5.2 134 -999
2012-04-10 14:48:33 51°13.686 2°55.838 128.8 4 127 13.5
2012-04-10 14:49:33 51°13.651 2°55.922 118.3 3.3 116 -999
2012-04-10 14:50:33 51°13.637 2°55.998 99.8 2.4 102 -999
2012-04-10 14:51:33 51°13.636 2°56.019 122.8 0.2 31 11.4